sensor_id;sensor_type;location;lat;lon;timestamp;pressure;altitude;pressure_sealevel;temperature;humidity
19672;BME280;9983;51.114;13.788;2023-12-20T00:02:38;98957.75;;;6.78;100.00
19672;BME280;9983;51.114;13.788;2023-12-20T00:07:39;98951.09;;;6.74;100.00
19672;BME280;9983;51.114;13.788;2023-12-20T00:12:39;98959.19;;;6.57;100.00
19672;BME280;9983;51.114;13.788;2023-12-20T00:17:41;98935.16;;;6.32;100.00
19672;BME280;9983;51.114;13.788;2023-12-20T00:22:41;98942.28;;;6.82;100.00
19672;BME280;9983;51.114;13.788;2023-12-20T00:27:41;98941.50;;;6.39;100.00
19672;BME280;9983;51.114;13.788;2023-12-20T00:32:42;98928.63;;;6.19;100.00
19672;BME280;9983;51.114;13.788;2023-12-20T00:37:46;98946.94;;;6.30;100.00
19672;BME280;9983;51.114;13.788;2023-12-20T00:42:47;98937.97;;;6.31;100.00
19672;BME280;9983;51.114;13.788;2023-12-20T00:47:47;98937.38;;;6.53;100.00
19672;BME280;9983;51.114;13.788;2023-12-20T00:52:48;98925.66;;;6.30;100.00
19672;BME280;9983;51.114;13.788;2023-12-20T00:57:48;98927.06;;;6.50;100.00
19672;BME280;9983;51.114;13.788;2023-12-20T01:02:48;98908.97;;;6.20;100.00
19672;BME280;9983;51.114;13.788;2023-12-20T01:07:51;98907.63;;;6.16;100.00
19672;BME280;9983;51.114;13.788;2023-12-20T01:12:51;98902.16;;;5.83;100.00
19672;BME280;9983;51.114;13.788;2023-12-20T01:17:51;98896.31;;;6.14;100.00
19672;BME280;9983;51.114;13.788;2023-12-20T01:22:52;98882.97;;;6.05;100.00
19672;BME280;9983;51.114;13.788;2023-12-20T01:27:52;98888.06;;;6.33;100.00
19672;BME280;9983;51.114;13.788;2023-12-20T01:32:53;98884.91;;;5.95;100.00
19672;BME280;9983;51.114;13.788;2023-12-20T01:37:53;98883.34;;;6.11;100.00
19672;BME280;9983;51.114;13.788;2023-12-20T01:43:07;98878.66;;;6.04;100.00
19672;BME280;9983;51.114;13.788;2023-12-20T01:48:08;98872.03;;;6.08;100.00
19672;BME280;9983;51.114;13.788;2023-12-20T01:53:12;98865.06;;;6.16;100.00
19672;BME280;9983;51.114;13.788;2023-12-20T01:58:13;98865.75;;;6.26;100.00
19672;BME280;9983;51.114;13.788;2023-12-20T02:03:14;98869.16;;;5.94;100.00
19672;BME280;9983;51.114;13.788;2023-12-20T02:08:14;98867.94;;;5.88;100.00
19672;BME280;9983;51.114;13.788;2023-12-20T02:13:14;98864.78;;;6.35;100.00
19672;BME280;9983;51.114;13.788;2023-12-20T02:18:15;98853.66;;;5.89;100.00
19672;BME280;9983;51.114;13.788;2023-12-20T02:23:16;98846.25;;;5.75;100.00
19672;BME280;9983;51.114;13.788;2023-12-20T02:28:17;98854.34;;;5.99;100.00
19672;BME280;9983;51.114;13.788;2023-12-20T02:33:17;98844.88;;;5.71;100.00
19672;BME280;9983;51.114;13.788;2023-12-20T02:38:17;98841.88;;;5.66;100.00
19672;BME280;9983;51.114;13.788;2023-12-20T02:43:17;98836.41;;;6.01;100.00
19672;BME280;9983;51.114;13.788;2023-12-20T02:48:18;98842.41;;;6.12;100.00
19672;BME280;9983;51.114;13.788;2023-12-20T02:53:18;98843.75;;;6.07;100.00
19672;BME280;9983;51.114;13.788;2023-12-20T02:58:18;98844.41;;;6.09;100.00
19672;BME280;9983;51.114;13.788;2023-12-20T03:03:18;98843.84;;;5.90;100.00
19672;BME280;9983;51.114;13.788;2023-12-20T03:08:19;98850.50;;;5.60;100.00
19672;BME280;9983;51.114;13.788;2023-12-20T03:13:19;98839.56;;;5.71;100.00
19672;BME280;9983;51.114;13.788;2023-12-20T03:18:21;98827.88;;;5.90;100.00
19672;BME280;9983;51.114;13.788;2023-12-20T03:23:21;98839.56;;;5.71;100.00
19672;BME280;9983;51.114;13.788;2023-12-20T03:28:21;98814.13;;;6.02;100.00
19672;BME280;9983;51.114;13.788;2023-12-20T03:33:23;98814.03;;;5.86;100.00
19672;BME280;9983;51.114;13.788;2023-12-20T03:38:23;98811.91;;;5.90;100.00
19672;BME280;9983;51.114;13.788;2023-12-20T03:43:24;98809.47;;;6.04;100.00
19672;BME280;9983;51.114;13.788;2023-12-20T03:48:24;98806.81;;;5.70;100.00
19672;BME280;9983;51.114;13.788;2023-12-20T03:53:24;98813.16;;;5.78;100.00
19672;BME280;9983;51.114;13.788;2023-12-20T03:58:24;98813.97;;;5.70;100.00
19672;BME280;9983;51.114;13.788;2023-12-20T04:03:25;98813.03;;;5.87;100.00
19672;BME280;9983;51.114;13.788;2023-12-20T04:08:25;98823.56;;;5.97;100.00
19672;BME280;9983;51.114;13.788;2023-12-20T04:13:26;98802.28;;;5.97;100.00
19672;BME280;9983;51.114;13.788;2023-12-20T04:18:26;98821.69;;;6.39;100.00
19672;BME280;9983;51.114;13.788;2023-12-20T04:23:26;98817.41;;;5.96;100.00
19672;BME280;9983;51.114;13.788;2023-12-20T04:28:26;98810.81;;;5.66;100.00
19672;BME280;9983;51.114;13.788;2023-12-20T04:33:27;98817.09;;;5.99;100.00
19672;BME280;9983;51.114;13.788;2023-12-20T04:38:27;98811.38;;;6.44;100.00
19672;BME280;9983;51.114;13.788;2023-12-20T04:43:27;98818.03;;;6.48;100.00
19672;BME280;9983;51.114;13.788;2023-12-20T04:48:28;98809.84;;;6.18;100.00
19672;BME280;9983;51.114;13.788;2023-12-20T04:53:28;98823.97;;;6.10;100.00
19672;BME280;9983;51.114;13.788;2023-12-20T04:58:28;98826.63;;;5.76;100.00
19672;BME280;9983;51.114;13.788;2023-12-20T05:03:29;98820.88;;;5.55;100.00
19672;BME280;9983;51.114;13.788;2023-12-20T05:08:29;98813.38;;;5.84;100.00
19672;BME280;9983;51.114;13.788;2023-12-20T05:13:29;98827.56;;;5.93;100.00
19672;BME280;9983;51.114;13.788;2023-12-20T05:18:29;98832.78;;;5.77;100.00
19672;BME280;9983;51.114;13.788;2023-12-20T05:23:30;98829.13;;;6.20;100.00
19672;BME280;9983;51.114;13.788;2023-12-20T05:28:30;98849.03;;;5.99;100.00
19672;BME280;9983;51.114;13.788;2023-12-20T05:33:30;98838.44;;;6.16;100.00
19672;BME280;9983;51.114;13.788;2023-12-20T05:38:31;98841.38;;;6.04;100.00
19672;BME280;9983;51.114;13.788;2023-12-20T05:43:31;98842.94;;;6.15;100.00
19672;BME280;9983;51.114;13.788;2023-12-20T05:48:31;98845.16;;;6.36;100.00
19672;BME280;9983;51.114;13.788;2023-12-20T05:53:31;98839.84;;;6.36;100.00
19672;BME280;9983;51.114;13.788;2023-12-20T05:58:35;98858.78;;;6.33;100.00
19672;BME280;9983;51.114;13.788;2023-12-20T06:03:35;98866.91;;;6.23;100.00
19672;BME280;9983;51.114;13.788;2023-12-20T06:08:36;98862.41;;;6.24;100.00
19672;BME280;9983;51.114;13.788;2023-12-20T06:13:36;98872.69;;;6.11;100.00
19672;BME280;9983;51.114;13.788;2023-12-20T06:18:36;98861.06;;;6.20;100.00
19672;BME280;9983;51.114;13.788;2023-12-20T06:23:36;98872.78;;;6.43;100.00
19672;BME280;9983;51.114;13.788;2023-12-20T06:28:37;98876.06;;;6.37;100.00
19672;BME280;9983;51.114;13.788;2023-12-20T06:33:37;98881.41;;;6.45;100.00
19672;BME280;9983;51.114;13.788;2023-12-20T06:38:40;98887.13;;;6.58;100.00
19672;BME280;9983;51.114;13.788;2023-12-20T06:43:42;98897.75;;;6.42;100.00
19672;BME280;9983;51.114;13.788;2023-12-20T06:48:42;98900.72;;;6.39;100.00
19672;BME280;9983;51.114;13.788;2023-12-20T06:53:43;98908.22;;;6.35;100.00
19672;BME280;9983;51.114;13.788;2023-12-20T06:58:43;98912.28;;;6.14;100.00
19672;BME280;9983;51.114;13.788;2023-12-20T07:03:43;98911.03;;;6.34;100.00
19672;BME280;9983;51.114;13.788;2023-12-20T07:08:44;98922.16;;;5.95;100.00
19672;BME280;9983;51.114;13.788;2023-12-20T07:13:44;98916.41;;;6.50;100.00
19672;BME280;9983;51.114;13.788;2023-12-20T07:18:44;98910.78;;;6.69;100.00
19672;BME280;9983;51.114;13.788;2023-12-20T07:23:45;98923.34;;;6.35;100.00
19672;BME280;9983;51.114;13.788;2023-12-20T07:28:45;98928.91;;;6.58;100.00
19672;BME280;9983;51.114;13.788;2023-12-20T07:33:45;98932.09;;;6.69;100.00
19672;BME280;9983;51.114;13.788;2023-12-20T07:38:45;98918.59;;;6.79;100.00
19672;BME280;9983;51.114;13.788;2023-12-20T07:43:46;98918.91;;;6.52;100.00
19672;BME280;9983;51.114;13.788;2023-12-20T07:48:46;98923.97;;;6.29;100.00
19672;BME280;9983;51.114;13.788;2023-12-20T07:53:46;98928.59;;;6.11;100.00
19672;BME280;9983;51.114;13.788;2023-12-20T07:58:46;98898.59;;;6.00;100.00
19672;BME280;9983;51.114;13.788;2023-12-20T08:03:49;98905.72;;;6.34;100.00
19672;BME280;9983;51.114;13.788;2023-12-20T08:08:49;98916.78;;;6.79;100.00
19672;BME280;9983;51.114;13.788;2023-12-20T08:13:49;98918.47;;;6.97;100.00
19672;BME280;9983;51.114;13.788;2023-12-20T08:18:51;98916.06;;;6.53;100.00
19672;BME280;9983;51.114;13.788;2023-12-20T08:23:51;98922.69;;;6.41;100.00
19672;BME280;9983;51.114;13.788;2023-12-20T08:28:52;98941.09;;;6.68;100.00
19672;BME280;9983;51.114;13.788;2023-12-20T08:33:52;98927.44;;;6.79;100.00
19672;BME280;9983;51.114;13.788;2023-12-20T08:38:53;98928.25;;;6.64;100.00
19672;BME280;9983;51.114;13.788;2023-12-20T08:43:55;98928.91;;;6.58;100.00
19672;BME280;9983;51.114;13.788;2023-12-20T08:48:55;98935.72;;;6.52;100.00
19672;BME280;9983;51.114;13.788;2023-12-20T08:53:55;98935.56;;;6.62;100.00
19672;BME280;9983;51.114;13.788;2023-12-20T08:58:56;98935.91;;;6.59;100.00
19672;BME280;9983;51.114;13.788;2023-12-20T09:03:56;98940.38;;;6.58;100.00
19672;BME280;9983;51.114;13.788;2023-12-20T09:08:56;98934.06;;;6.51;100.00
19672;BME280;9983;51.114;13.788;2023-12-20T09:13:56;98923.72;;;6.48;100.00
19672;BME280;9983;51.114;13.788;2023-12-20T09:18:57;98934.59;;;6.79;100.00
19672;BME280;9983;51.114;13.788;2023-12-20T09:23:57;98929.88;;;6.48;100.00
19672;BME280;9983;51.114;13.788;2023-12-20T09:28:57;98924.47;;;7.07;100.00
19672;BME280;9983;51.114;13.788;2023-12-20T09:33:58;98917.78;;;6.86;100.00
19672;BME280;9983;51.114;13.788;2023-12-20T09:38:58;98915.16;;;7.27;100.00
19672;BME280;9983;51.114;13.788;2023-12-20T09:44:00;98923.44;;;6.67;100.00
19672;BME280;9983;51.114;13.788;2023-12-20T09:49:02;98920.63;;;6.69;100.00
19672;BME280;9983;51.114;13.788;2023-12-20T09:54:03;98889.00;;;6.98;100.00
19672;BME280;9983;51.114;13.788;2023-12-20T09:59:04;98897.44;;;7.58;100.00
19672;BME280;9983;51.114;13.788;2023-12-20T10:04:08;98893.16;;;7.33;100.00
19672;BME280;9983;51.114;13.788;2023-12-20T10:09:10;98901.78;;;6.86;100.00
19672;BME280;9983;51.114;13.788;2023-12-20T10:14:11;98893.16;;;7.17;100.00
19672;BME280;9983;51.114;13.788;2023-12-20T10:19:11;98881.84;;;6.91;100.00
19672;BME280;9983;51.114;13.788;2023-12-20T10:24:16;98879.31;;;6.81;100.00
19672;BME280;9983;51.114;13.788;2023-12-20T10:29:17;98871.50;;;7.12;100.00
19672;BME280;9983;51.114;13.788;2023-12-20T10:34:17;98877.16;;;6.76;100.00
19672;BME280;9983;51.114;13.788;2023-12-20T10:39:18;98869.81;;;6.70;100.00
19672;BME280;9983;51.114;13.788;2023-12-20T10:44:20;98858.13;;;7.52;100.00
19672;BME280;9983;51.114;13.788;2023-12-20T10:49:20;98839.09;;;7.55;100.00
19672;BME280;9983;51.114;13.788;2023-12-20T10:54:21;98823.44;;;7.52;100.00
19672;BME280;9983;51.114;13.788;2023-12-20T10:59:22;98834.34;;;7.82;100.00
19672;BME280;9983;51.114;13.788;2023-12-20T11:04:34;98837.88;;;7.03;100.00
19672;BME280;9983;51.114;13.788;2023-12-20T11:09:40;98831.75;;;7.57;100.00
19672;BME280;9983;51.114;13.788;2023-12-20T11:14:51;98809.38;;;7.67;100.00
19672;BME280;9983;51.114;13.788;2023-12-20T11:25:10;98830.00;;;7.34;100.00
19672;BME280;9983;51.114;13.788;2023-12-20T11:30:11;98817.09;;;7.45;100.00
19672;BME280;9983;51.114;13.788;2023-12-20T11:40:18;98798.09;;;7.56;100.00
19672;BME280;9983;51.114;13.788;2023-12-20T11:45:20;98807.88;;;7.17;100.00
19672;BME280;9983;51.114;13.788;2023-12-20T11:50:22;98799.50;;;7.20;100.00
19672;BME280;9983;51.114;13.788;2023-12-20T11:55:23;98783.31;;;7.38;100.00
19672;BME280;9983;51.114;13.788;2023-12-20T12:00:24;98780.34;;;7.72;100.00
19672;BME280;9983;51.114;13.788;2023-12-20T12:05:24;98780.00;;;7.75;100.00
19672;BME280;9983;51.114;13.788;2023-12-20T12:10:25;98776.50;;;8.05;99.69
19672;BME280;9983;51.114;13.788;2023-12-20T12:15:26;98760.78;;;7.79;100.00
19672;BME280;9983;51.114;13.788;2023-12-20T12:20:26;98756.22;;;8.87;96.28
19672;BME280;9983;51.114;13.788;2023-12-20T12:25:26;98752.09;;;8.99;95.49
19672;BME280;9983;51.114;13.788;2023-12-20T12:30:28;98736.28;;;8.75;96.36
19672;BME280;9983;51.114;13.788;2023-12-20T12:35:28;98732.63;;;8.76;91.70
19672;BME280;9983;51.114;13.788;2023-12-20T12:40:29;98729.22;;;8.45;94.42
19672;BME280;9983;51.114;13.788;2023-12-20T12:45:29;98716.31;;;7.72;96.87
19672;BME280;9983;51.114;13.788;2023-12-20T12:50:30;98720.34;;;7.68;97.07
19672;BME280;9983;51.114;13.788;2023-12-20T12:55:31;98733.97;;;8.34;95.36
19672;BME280;9983;51.114;13.788;2023-12-20T13:00:31;98693.69;;;8.59;95.62
19672;BME280;9983;51.114;13.788;2023-12-20T13:05:31;98682.84;;;9.04;94.20
19672;BME280;9983;51.114;13.788;2023-12-20T13:10:32;98690.94;;;8.67;93.02
19672;BME280;9983;51.114;13.788;2023-12-20T13:15:32;98693.84;;;8.43;94.51
19672;BME280;9983;51.114;13.788;2023-12-20T13:20:32;98688.34;;;8.59;93.78
19672;BME280;9983;51.114;13.788;2023-12-20T13:25:33;98670.56;;;8.51;91.66
19672;BME280;9983;51.114;13.788;2023-12-20T13:30:34;98675.25;;;8.64;90.77
19672;BME280;9983;51.114;13.788;2023-12-20T13:35:34;98677.91;;;8.04;92.14
19672;BME280;9983;51.114;13.788;2023-12-20T13:40:34;98669.03;;;8.11;93.80
19672;BME280;9983;51.114;13.788;2023-12-20T13:45:35;98653.22;;;8.24;92.39
19672;BME280;9983;51.114;13.788;2023-12-20T13:50:35;98658.38;;;8.11;93.83
19672;BME280;9983;51.114;13.788;2023-12-20T13:55:35;98640.94;;;7.78;93.47
19672;BME280;9983;51.114;13.788;2023-12-20T14:00:36;98658.22;;;7.82;94.44
19672;BME280;9983;51.114;13.788;2023-12-20T14:05:36;98646.00;;;7.65;95.88
19672;BME280;9983;51.114;13.788;2023-12-20T14:10:37;98630.34;;;8.07;94.79
19672;BME280;9983;51.114;13.788;2023-12-20T14:15:38;98623.81;;;8.32;92.73
19672;BME280;9983;51.114;13.788;2023-12-20T14:20:38;98630.59;;;7.75;93.92
19672;BME280;9983;51.114;13.788;2023-12-20T14:25:41;98629.13;;;7.41;96.69
19672;BME280;9983;51.114;13.788;2023-12-20T14:30:41;98630.91;;;7.26;98.56
19672;BME280;9983;51.114;13.788;2023-12-20T14:35:41;98632.69;;;7.34;98.15
19672;BME280;9983;51.114;13.788;2023-12-20T14:40:44;98629.88;;;7.58;98.73
19672;BME280;9983;51.114;13.788;2023-12-20T14:45:44;98632.38;;;7.59;98.65
19672;BME280;9983;51.114;13.788;2023-12-20T14:50:44;98630.72;;;7.58;98.61
19672;BME280;9983;51.114;13.788;2023-12-20T14:55:47;98641.38;;;7.58;99.21
19672;BME280;9983;51.114;13.788;2023-12-20T15:00:48;98634.72;;;7.23;100.00
19672;BME280;9983;51.114;13.788;2023-12-20T15:05:48;98641.19;;;7.29;99.72
19672;BME280;9983;51.114;13.788;2023-12-20T15:10:48;98648.75;;;7.48;100.00
19672;BME280;9983;51.114;13.788;2023-12-20T15:15:49;98641.50;;;7.65;100.00
19672;BME280;9983;51.114;13.788;2023-12-20T15:20:50;98637.59;;;7.14;100.00
19672;BME280;9983;51.114;13.788;2023-12-20T15:25:50;98644.94;;;7.74;99.56
19672;BME280;9983;51.114;13.788;2023-12-20T15:30:50;98641.09;;;7.45;100.00
19672;BME280;9983;51.114;13.788;2023-12-20T15:35:50;98649.56;;;7.57;100.00
19672;BME280;9983;51.114;13.788;2023-12-20T15:40:51;98650.03;;;7.60;100.00
19672;BME280;9983;51.114;13.788;2023-12-20T15:45:51;98643.69;;;7.31;100.00
19672;BME280;9983;51.114;13.788;2023-12-20T15:50:51;98635.03;;;7.29;100.00
19672;BME280;9983;51.114;13.788;2023-12-20T15:55:51;98642.44;;;7.49;100.00
19672;BME280;9983;51.114;13.788;2023-12-20T16:00:52;98640.28;;;7.45;100.00
19672;BME280;9983;51.114;13.788;2023-12-20T16:05:53;98654.44;;;7.76;100.00
19672;BME280;9983;51.114;13.788;2023-12-20T16:10:58;98655.31;;;7.38;100.00
19672;BME280;9983;51.114;13.788;2023-12-20T16:16:01;98644.34;;;7.02;100.00
19672;BME280;9983;51.114;13.788;2023-12-20T16:21:02;98651.94;;;7.13;100.00
19672;BME280;9983;51.114;13.788;2023-12-20T16:26:03;98647.22;;;7.23;100.00
19672;BME280;9983;51.114;13.788;2023-12-20T16:31:03;98659.69;;;7.31;100.00
19672;BME280;9983;51.114;13.788;2023-12-20T16:36:04;98652.88;;;7.20;100.00
19672;BME280;9983;51.114;13.788;2023-12-20T16:41:04;98660.81;;;7.44;100.00
19672;BME280;9983;51.114;13.788;2023-12-20T16:46:04;98657.16;;;7.37;100.00
19672;BME280;9983;51.114;13.788;2023-12-20T16:51:04;98662.09;;;7.48;100.00
19672;BME280;9983;51.114;13.788;2023-12-20T16:56:05;98662.00;;;7.03;100.00
19672;BME280;9983;51.114;13.788;2023-12-20T17:01:05;98669.19;;;7.33;100.00
19672;BME280;9983;51.114;13.788;2023-12-20T17:06:08;98669.69;;;6.81;100.00
19672;BME280;9983;51.114;13.788;2023-12-20T17:11:08;98680.63;;;7.42;100.00
19672;BME280;9983;51.114;13.788;2023-12-20T17:16:09;98692.56;;;7.15;100.00
19672;BME280;9983;51.114;13.788;2023-12-20T17:21:09;98691.28;;;6.95;100.00
19672;BME280;9983;51.114;13.788;2023-12-20T17:26:11;98694.75;;;7.03;100.00
19672;BME280;9983;51.114;13.788;2023-12-20T17:31:11;98694.50;;;7.29;100.00
19672;BME280;9983;51.114;13.788;2023-12-20T17:36:12;98703.66;;;6.79;100.00
19672;BME280;9983;51.114;13.788;2023-12-20T17:41:14;98698.72;;;6.44;100.00
19672;BME280;9983;51.114;13.788;2023-12-20T17:46:15;98705.06;;;6.35;100.00
19672;BME280;9983;51.114;13.788;2023-12-20T17:51:15;98711.69;;;6.23;100.00
19672;BME280;9983;51.114;13.788;2023-12-20T17:56:16;98693.41;;;6.52;100.00
19672;BME280;9983;51.114;13.788;2023-12-20T18:01:17;98693.72;;;6.08;100.00
19672;BME280;9983;51.114;13.788;2023-12-20T18:06:17;98688.41;;;5.92;100.00
19672;BME280;9983;51.114;13.788;2023-12-20T18:11:17;98706.97;;;5.84;100.00
19672;BME280;9983;51.114;13.788;2023-12-20T18:16:18;98709.03;;;5.98;100.00
19672;BME280;9983;51.114;13.788;2023-12-20T18:21:18;98704.69;;;6.05;100.00
19672;BME280;9983;51.114;13.788;2023-12-20T18:26:18;98703.53;;;6.08;100.00
19672;BME280;9983;51.114;13.788;2023-12-20T18:31:18;98706.38;;;6.06;100.00
19672;BME280;9983;51.114;13.788;2023-12-20T18:36:19;98719.34;;;6.18;100.00
19672;BME280;9983;51.114;13.788;2023-12-20T18:41:19;98724.53;;;6.27;100.00
19672;BME280;9983;51.114;13.788;2023-12-20T18:46:19;98716.00;;;5.99;100.00
19672;BME280;9983;51.114;13.788;2023-12-20T18:51:20;98710.38;;;6.19;100.00
19672;BME280;9983;51.114;13.788;2023-12-20T18:56:20;98708.34;;;6.13;100.00
19672;BME280;9983;51.114;13.788;2023-12-20T19:01:20;98720.03;;;6.44;100.00
19672;BME280;9983;51.114;13.788;2023-12-20T19:06:20;98709.34;;;6.12;100.00
19672;BME280;9983;51.114;13.788;2023-12-20T19:11:21;98705.69;;;6.61;100.00
19672;BME280;9983;51.114;13.788;2023-12-20T19:16:21;98705.69;;;6.29;100.00
19672;BME280;9983;51.114;13.788;2023-12-20T19:21:22;98701.72;;;6.00;100.00
19672;BME280;9983;51.114;13.788;2023-12-20T19:26:23;98706.03;;;6.09;100.00
19672;BME280;9983;51.114;13.788;2023-12-20T19:31:23;98698.38;;;6.47;100.00
19672;BME280;9983;51.114;13.788;2023-12-20T19:36:23;98691.06;;;5.92;100.00
19672;BME280;9983;51.114;13.788;2023-12-20T19:41:23;98679.44;;;6.42;100.00
19672;BME280;9983;51.114;13.788;2023-12-20T19:46:24;98665.94;;;6.43;100.00
19672;BME280;9983;51.114;13.788;2023-12-20T19:51:25;98675.03;;;6.81;100.00
19672;BME280;9983;51.114;13.788;2023-12-20T19:56:25;98671.72;;;6.71;100.00
19672;BME280;9983;51.114;13.788;2023-12-20T20:01:26;98660.97;;;6.96;100.00
19672;BME280;9983;51.114;13.788;2023-12-20T20:06:26;98664.09;;;6.20;100.00
19672;BME280;9983;51.114;13.788;2023-12-20T20:11:26;98659.44;;;6.46;100.00
19672;BME280;9983;51.114;13.788;2023-12-20T20:16:26;98657.13;;;6.35;100.00
19672;BME280;9983;51.114;13.788;2023-12-20T20:21:27;98640.81;;;6.38;100.00
19672;BME280;9983;51.114;13.788;2023-12-20T20:26:27;98630.69;;;6.25;100.00
19672;BME280;9983;51.114;13.788;2023-12-20T20:31:27;98617.56;;;5.91;100.00
19672;BME280;9983;51.114;13.788;2023-12-20T20:36:31;98607.53;;;6.42;100.00
19672;BME280;9983;51.114;13.788;2023-12-20T20:41:31;98602.53;;;6.47;100.00
19672;BME280;9983;51.114;13.788;2023-12-20T20:46:32;98600.63;;;6.72;100.00
19672;BME280;9983;51.114;13.788;2023-12-20T20:51:32;98589.22;;;6.47;100.00
19672;BME280;9983;51.114;13.788;2023-12-20T20:56:32;98591.03;;;6.46;100.00
19672;BME280;9983;51.114;13.788;2023-12-20T21:01:32;98578.84;;;6.68;100.00
19672;BME280;9983;51.114;13.788;2023-12-20T21:06:32;98602.59;;;6.15;100.00
19672;BME280;9983;51.114;13.788;2023-12-20T21:11:33;98596.59;;;6.21;100.00
19672;BME280;9983;51.114;13.788;2023-12-20T21:16:34;98587.53;;;6.54;100.00
19672;BME280;9983;51.114;13.788;2023-12-20T21:21:34;98565.97;;;6.25;100.00
19672;BME280;9983;51.114;13.788;2023-12-20T21:26:35;98547.03;;;6.03;100.00
19672;BME280;9983;51.114;13.788;2023-12-20T21:31:35;98552.03;;;5.82;100.00
19672;BME280;9983;51.114;13.788;2023-12-20T21:36:36;98534.84;;;6.33;100.00
19672;BME280;9983;51.114;13.788;2023-12-20T21:41:36;98518.22;;;6.70;100.00
19672;BME280;9983;51.114;13.788;2023-12-20T21:46:36;98515.53;;;6.78;100.00
19672;BME280;9983;51.114;13.788;2023-12-20T21:51:36;98499.41;;;6.33;100.00
19672;BME280;9983;51.114;13.788;2023-12-20T21:56:37;98501.28;;;6.63;100.00
19672;BME280;9983;51.114;13.788;2023-12-20T22:01:40;98489.66;;;6.56;100.00
19672;BME280;9983;51.114;13.788;2023-12-20T22:06:42;98474.81;;;6.31;100.00
19672;BME280;9983;51.114;13.788;2023-12-20T22:11:42;98459.63;;;6.70;100.00
19672;BME280;9983;51.114;13.788;2023-12-20T22:16:43;98456.34;;;6.68;100.00
19672;BME280;9983;51.114;13.788;2023-12-20T22:21:43;98469.81;;;6.67;100.00
19672;BME280;9983;51.114;13.788;2023-12-20T22:26:44;98469.16;;;6.34;100.00
19672;BME280;9983;51.114;13.788;2023-12-20T22:31:44;98449.88;;;6.24;100.00
19672;BME280;9983;51.114;13.788;2023-12-20T22:36:44;98437.97;;;6.73;100.00
19672;BME280;9983;51.114;13.788;2023-12-20T22:41:44;98435.72;;;6.62;100.00
19672;BME280;9983;51.114;13.788;2023-12-20T22:46:45;98430.44;;;6.54;100.00
19672;BME280;9983;51.114;13.788;2023-12-20T22:51:45;98401.50;;;6.51;100.00
19672;BME280;9983;51.114;13.788;2023-12-20T22:56:45;98391.09;;;6.64;100.00
19672;BME280;9983;51.114;13.788;2023-12-20T23:01:52;98383.25;;;6.40;100.00
19672;BME280;9983;51.114;13.788;2023-12-20T23:06:52;98364.13;;;6.67;100.00
19672;BME280;9983;51.114;13.788;2023-12-20T23:11:53;98360.09;;;6.71;100.00
19672;BME280;9983;51.114;13.788;2023-12-20T23:16:54;98344.34;;;6.84;100.00
19672;BME280;9983;51.114;13.788;2023-12-20T23:21:54;98341.16;;;6.66;100.00
19672;BME280;9983;51.114;13.788;2023-12-20T23:26:56;98329.44;;;6.75;100.00
19672;BME280;9983;51.114;13.788;2023-12-20T23:31:57;98331.22;;;6.60;100.00
19672;BME280;9983;51.114;13.788;2023-12-20T23:36:57;98311.66;;;6.91;100.00
19672;BME280;9983;51.114;13.788;2023-12-20T23:41:57;98305.16;;;6.47;100.00
19672;BME280;9983;51.114;13.788;2023-12-20T23:46:57;98305.16;;;6.70;100.00
19672;BME280;9983;51.114;13.788;2023-12-20T23:51:58;98295.22;;;6.64;100.00
19672;BME280;9983;51.114;13.788;2023-12-20T23:56:58;98278.44;;;6.78;100.00
